Terminal Aerodrome Forecast
Issued by NWS

Home | Current Version | Previous Version | Text Only | Print | Product List | Glossary On
Versions: 1 2 3 4 5 6 7 8 9 10 11 12 13 14 15 16
000
FTUS41 KALY 231827 AAA
TAFPSF
TAF AMD
KPSF 231827Z 2318/2418 31010G18KT P6SM SKC
     FM240000 VRB03KT P6SM FEW120 SCT200
     FM240500 00000KT P6SM BKN120 BKN200
     FM241400 20011G22KT 2SM -SN BKN040 OVC080
     FM241600 20013G24KT 1SM -SNRAPL BKN015 OVC030=

USA.gov is the U.S. government's official web portal to all federal, state and local government web resources and services.